Time;durP1;ratioP1;P1;durP2;ratioP2;P2;SDS_P1;SDS_P2;PMS_P1;PMS_P2;Temp;Humidity;BMP_temperature;BMP_pressure;BME280_temperature;BME280_humidity;BME280_pressure;Samples;Min_cycle;Max_cycle;Signal;HPM_P1;HPM_P2
2023/05/28 00:01:28;;;;;;;5.57;4.47;;;;;;;18.25;100.00;102227.16;5072124;28;20422;-70
2023/05/28 00:03:53;;;;;;;5.70;4.50;;;;;;;18.06;100.00;102189.84;5072150;28;20111;-70
2023/05/28 00:06:18;;;;;;;6.85;4.25;;;;;;;18.00;100.00;102162.50;5071842;28;20044;-70
2023/05/28 00:08:44;;;;;;;4.38;3.90;;;;;;;18.00;100.00;102154.78;5071916;28;20032;-72
2023/05/28 00:11:09;;;;;;;8.70;4.20;;;;;;;18.24;100.00;102204.84;5071995;28;20074;-70
2023/05/28 00:13:35;;;;;;;5.97;4.13;;;;;;;18.21;100.00;102194.63;5072175;28;20028;-71
2023/05/28 00:16:00;;;;;;;4.93;4.20;;;;;;;18.20;100.00;102177.50;5054009;28;20028;-70
2023/05/28 00:18:28;;;;;;;6.50;4.75;;;;;;;18.39;100.00;102209.63;5071830;28;20107;-70
2023/05/28 00:20:53;;;;;;;5.57;4.40;;;;;;;18.40;100.00;102215.63;5071227;28;20115;-71
2023/05/28 00:23:19;;;;;;;4.35;3.95;;;;;;;18.16;100.00;102192.13;5053812;28;20501;-70
2023/05/28 00:25:44;;;;;;;6.63;4.07;;;;;;;18.37;100.00;102221.69;5071948;28;20111;-70
2023/05/28 00:28:10;;;;;;;4.90;4.40;;;;;;;18.49;100.00;102210.28;5072008;28;20054;-70
2023/05/28 00:30:35;;;;;;;4.55;4.00;;;;;;;18.41;100.00;102192.41;5071674;28;20025;-70
2023/05/28 00:33:01;;;;;;;6.20;4.00;;;;;;;18.16;100.00;102206.78;5070613;28;20055;-70
2023/05/28 00:35:26;;;;;;;4.10;3.58;;;;;;;18.30;100.00;102212.44;5071615;28;20120;-70
2023/05/28 00:37:54;;;;;;;5.32;3.53;;;;;;;18.16;100.00;102184.41;5070848;28;20039;-70
2023/05/28 00:40:20;;;;;;;5.07;3.80;;;;;;;18.27;100.00;102173.88;5071638;28;20028;-70
2023/05/28 00:42:45;;;;;;;4.18;3.78;;;;;;;17.64;100.00;102113.59;5071374;28;20036;-70
2023/05/28 00:45:11;;;;;;;4.20;3.28;;;;;;;18.28;100.00;102221.09;5071632;28;20044;-70
2023/05/28 00:47:39;;;;;;;8.25;4.03;;;;;;;17.94;100.00;102205.56;5069410;28;20552;-71
2023/05/28 00:50:09;;;;;;;4.95;4.00;;;;;;;17.18;100.00;102122.28;5071158;28;20459;-71
2023/05/28 00:52:35;;;;;;;7.15;5.20;;;;;;;17.58;100.00;102232.06;5053069;28;20048;-71
2023/05/28 00:55:01;;;;;;;6.70;5.47;;;;;;;17.23;100.00;102195.00;5070988;28;20051;-70
2023/05/28 00:57:26;;;;;;;9.23;5.97;;;;;;;16.77;100.00;102199.34;5071198;28;20479;-70
2023/05/28 00:59:55;;;;;;;8.15;5.93;;;;;;;16.46;100.00;102229.78;5072053;28;20536;-70
2023/05/28 01:02:20;;;;;;;9.05;6.28;;;;;;;16.63;100.00;102267.22;5071097;28;20032;-70
2023/05/28 01:04:45;;;;;;;8.15;6.53;;;;;;;16.85;100.00;102235.16;5071303;28;20029;-70
2023/05/28 01:07:11;;;;;;;9.50;7.45;;;;;;;16.81;100.00;102005.69;5071290;28;20474;-71
2023/05/28 01:09:36;;;;;;;14.30;9.15;;;;;;;16.67;100.00;101729.44;5071370;28;20052;-71
2023/05/28 01:12:03;;;;;;;11.60;10.00;;;;;;;16.66;100.00;101466.59;5070616;28;20056;-69
2023/05/28 01:14:30;;;;;;;12.30;11.00;;;;;;;16.53;100.00;100997.94;5071000;28;20106;-69
2023/05/28 01:16:58;;;;;;;11.98;10.73;;;;;;;16.61;100.00;100591.97;5070638;28;20035;-71
2023/05/28 01:19:27;;;;;;;16.30;11.10;;;;;;;16.27;100.00;100305.13;5070583;28;20113;-70
2023/05/28 01:21:58;;;;;;;14.02;11.50;;;;;;;16.56;100.00;100285.84;5070867;28;20028;-70
2023/05/28 01:24:24;;;;;;;12.73;10.52;;;;;;;16.61;100.00;100379.72;5070985;28;20071;-69
2023/05/28 01:26:51;;;;;;;12.25;11.02;;;;;;;16.58;100.00;100518.47;5070855;28;20036;-69
2023/05/28 01:29:18;;;;;;;12.85;11.23;;;;;;;16.38;100.00;100650.22;5052692;28;20465;-70
2023/05/28 01:31:44;;;;;;;16.13;10.73;;;;;;;16.66;100.00;100864.81;5070630;28;20059;-72
2023/05/28 01:34:10;;;;;;;13.75;11.13;;;;;;;16.52;100.00;100969.78;5070967;28;20064;-70
2023/05/28 01:36:46;;;;;;;13.68;11.40;;;;;;;16.26;100.00;101022.00;5071062;28;20048;-70
2023/05/28 01:39:16;;;;;;;12.20;10.95;;;;;;;16.52;100.00;101206.78;5070825;28;20060;-70
2023/05/28 01:41:45;;;;;;;11.25;10.10;;;;;;;16.99;100.00;101356.84;5070563;28;20047;-69
2023/05/28 01:44:16;;;;;;;11.57;10.30;;;;;;;16.99;100.00;101441.63;5070257;28;20033;-70
2023/05/28 01:46:42;;;;;;;11.40;10.30;;;;;;;16.90;100.00;101517.25;5052676;28;20028;-70
2023/05/28 01:49:10;;;;;;;13.73;10.93;;;;;;;16.74;100.00;101559.69;5070595;28;20064;-70
2023/05/28 01:51:36;;;;;;;12.98;10.13;;;;;;;17.06;100.00;101667.56;5070576;28;20032;-70
2023/05/28 01:54:01;;;;;;;11.85;10.60;;;;;;;17.02;100.00;101721.66;5070445;28;20036;-71
2023/05/28 01:56:27;;;;;;;14.25;10.45;;;;;;;16.99;100.00;101737.16;5069926;28;20032;-70
2023/05/28 01:58:52;;;;;;;13.82;10.93;;;;;;;17.22;100.00;101828.22;5070321;28;20124;-70
2023/05/28 02:01:27;;;;;;;11.32;10.23;;;;;;;16.79;100.00;101817.31;5051322;28;20064;-69
2023/05/28 02:03:53;;;;;;;12.98;10.52;;;;;;;16.92;100.00;101900.94;5070678;28;20029;-70
2023/05/28 02:06:18;;;;;;;14.15;10.38;;;;;;;17.15;100.00;101950.06;5070587;28;20519;-70
2023/05/28 02:08:44;;;;;;;11.43;9.80;;;;;;;16.97;100.00;101952.25;5070438;28;20029;-70
2023/05/28 02:11:09;;;;;;;12.75;10.57;;;;;;;16.89;100.00;101967.84;5052403;28;20032;-69
2023/05/28 02:13:35;;;;;;;11.30;10.07;;;;;;;17.21;100.00;102045.06;5030249;28;20512;-69
2023/05/28 02:16:01;;;;;;;11.68;10.50;;;;;;;17.22;100.00;102095.63;5030015;28;20025;-69
2023/05/28 02:18:26;;;;;;;12.05;9.98;;;;;;;17.00;100.00;102108.94;5030185;28;20530;-69
2023/05/28 02:20:52;;;;;;;12.20;10.20;;;;;;;17.07;100.00;102142.19;5030716;28;20400;-70
2023/05/28 02:23:17;;;;;;;10.73;9.70;;;;;;;17.03;100.00;102144.88;5030664;28;20028;-69
2023/05/28 02:25:43;;;;;;;12.68;9.70;;;;;;;17.06;100.00;102191.94;5030372;28;20407;-69
2023/05/28 02:28:09;;;;;;;11.43;9.80;;;;;;;16.96;100.00;102226.38;5027894;28;20041;-72
2023/05/28 02:30:34;;;;;;;11.07;9.98;;;;;;;16.84;100.00;102247.16;5030127;28;20029;-69
2023/05/28 02:33:00;;;;;;;11.43;9.27;;;;;;;17.10;100.00;102264.69;5029541;28;20488;-69
2023/05/28 02:35:25;;;;;;;11.57;10.35;;;;;;;16.75;100.00;102239.63;5029725;28;20057;-69
2023/05/28 02:37:51;;;;;;;12.27;10.98;;;;;;;16.78;100.00;102260.13;5029922;28;20021;-69
2023/05/28 02:40:16;;;;;;;12.75;10.80;;;;;;;16.79;100.00;102292.66;5029481;28;20030;-69
2023/05/28 02:42:42;;;;;;;12.60;11.20;;;;;;;16.85;100.00;102325.13;5029309;28;20033;-68
2023/05/28 02:45:08;;;;;;;14.60;12.00;;;;;;;17.05;100.00;102379.63;5028420;28;20120;-69
2023/05/28 02:47:33;;;;;;;13.77;11.65;;;;;;;16.91;100.00;102397.84;5028242;28;20029;-69
2023/05/28 02:49:58;;;;;;;13.35;11.20;;;;;;;16.77;100.00;102399.75;5028077;28;20124;-70
2023/05/28 02:52:24;;;;;;;12.93;11.55;;;;;;;16.87;100.00;102437.31;5029899;28;20029;-70
2023/05/28 02:54:49;;;;;;;13.52;11.40;;;;;;;17.10;100.00;102485.78;5029571;28;20033;-70
2023/05/28 02:57:15;;;;;;;13.77;12.38;;;;;;;17.03;100.00;102527.91;5031658;28;20033;-70
2023/05/28 02:59:40;;;;;;;14.65;12.68;;;;;;;16.96;100.00;102539.97;5032865;28;20657;-70
2023/05/28 03:02:06;;;;;;;14.05;12.02;;;;;;;17.14;100.00;102601.44;5030394;28;20029;-70
2023/05/28 03:04:31;;;;;;;12.48;11.15;;;;;;;17.09;100.00;102659.75;5033688;28;20560;-70
2023/05/28 03:06:57;;;;;;;16.13;11.80;;;;;;;16.98;100.00;102635.06;5032442;28;20400;-69
2023/05/28 03:09:22;;;;;;;11.60;10.35;;;;;;;17.15;100.00;102689.72;5031880;28;20037;-70
2023/05/28 03:11:48;;;;;;;12.07;10.88;;;;;;;17.09;100.00;102690.63;5031437;28;20045;-71
2023/05/28 03:14:13;;;;;;;13.88;12.38;;;;;;;17.15;100.00;102738.56;5032541;28;20057;-70
2023/05/28 03:16:39;;;;;;;13.55;12.13;;;;;;;17.11;100.00;102760.88;5032955;28;20052;-70
2023/05/28 03:19:04;;;;;;;16.83;12.07;;;;;;;16.84;100.00;102730.31;5033053;28;20029;-70
2023/05/28 03:21:30;;;;;;;14.68;11.68;;;;;;;17.08;100.00;102785.78;5032964;28;20033;-69
2023/05/28 03:23:55;;;;;;;14.90;12.25;;;;;;;17.01;100.00;102803.00;5033245;28;20124;-69
2023/05/28 03:26:21;;;;;;;13.68;12.00;;;;;;;16.88;100.00;102795.38;5032818;28;20025;-70
2023/05/28 03:28:47;;;;;;;13.13;11.82;;;;;;;17.03;100.00;102869.81;5031671;28;20025;-69
2023/05/28 03:31:13;;;;;;;13.63;11.80;;;;;;;16.82;100.00;102873.38;5033000;28;20025;-69
2023/05/28 03:33:38;;;;;;;14.70;12.32;;;;;;;16.94;100.00;102935.00;5018976;28;20409;-69
2023/05/28 03:36:05;;;;;;;15.10;13.27;;;;;;;17.38;100.00;103024.72;5012825;28;20607;-69
2023/05/28 03:38:31;;;;;;;16.77;14.10;;;;;;;16.97;100.00;102994.13;5013915;28;20425;-72
2023/05/28 03:40:57;;;;;;;16.35;14.40;;;;;;;17.30;100.00;103067.63;5014833;28;20400;-73
2023/05/28 03:43:22;;;;;;;15.70;14.02;;;;;;;17.10;100.00;103048.88;5027872;28;20060;-73
2023/05/28 03:45:47;;;;;;;15.88;13.90;;;;;;;17.00;100.00;103060.94;5033470;28;20025;-71
2023/05/28 03:48:13;;;;;;;14.45;12.63;;;;;;;17.35;100.00;103133.63;5026608;28;20032;-76
2023/05/28 03:50:38;;;;;;;13.38;12.00;;;;;;;17.21;100.00;103135.41;5012091;28;20034;-73
2023/05/28 03:53:04;;;;;;;13.05;10.95;;;;;;;16.96;100.00;103102.94;5015019;28;20104;-72
2023/05/28 03:55:29;;;;;;;12.43;11.10;;;;;;;17.41;100.00;103191.91;5033110;28;20108;-72
2023/05/28 03:57:54;;;;;;;12.40;10.43;;;;;;;17.20;100.00;103179.13;5031020;28;20021;-73
2023/05/28 04:00:20;;;;;;;11.23;10.20;;;;;;;17.42;100.00;103236.50;5027408;28;20025;-73
2023/05/28 04:02:46;;;;;;;10.95;9.85;;;;;;;17.84;100.00;103322.16;5033055;28;20493;-73
2023/05/28 04:05:11;;;;;;;10.82;9.73;;;;;;;17.64;100.00;103300.78;5033336;28;20438;-73
2023/05/28 04:07:37;;;;;;;11.10;9.85;;;;;;;17.52;100.00;103279.38;5031421;28;20033;-72
2023/05/28 04:10:02;;;;;;;10.93;9.00;;;;;;;17.51;100.00;103293.94;5031536;28;20026;-72
2023/05/28 04:12:27;;;;;;;10.27;8.40;;;;;;;17.39;100.00;103275.13;5053984;28;20041;-73
2023/05/28 04:14:53;;;;;;;10.13;8.25;;;;;;;17.42;100.00;103280.22;5073073;28;20024;-72
2023/05/28 04:17:20;;;;;;;9.60;8.45;;;;;;;17.55;100.00;103305.13;5072199;28;20047;-73
2023/05/28 04:19:46;;;;;;;9.63;8.32;;;;;;;17.39;100.00;103273.38;5073103;28;20115;-72
2023/05/28 04:22:11;;;;;;;12.18;8.15;;;;;;;17.16;100.00;103227.16;5072686;28;20545;-73
2023/05/28 04:24:36;;;;;;;9.02;8.13;;;;;;;17.64;100.00;103302.50;5065976;28;20086;-72
2023/05/28 04:27:02;;;;;;;9.68;8.23;;;;;;;17.62;100.00;103292.22;5068585;28;20035;-73
2023/05/28 04:29:29;;;;;;;9.10;8.20;;;;;;;17.72;100.00;103305.91;5055060;28;20412;-77
2023/05/28 04:31:57;;;;;;;9.50;8.50;;;;;;;17.86;100.00;103322.16;5054882;28;20033;-73
2023/05/28 04:34:27;;;;;;;9.05;8.15;;;;;;;17.86;100.00;103327.31;5071072;28;20243;-74
2023/05/28 04:36:52;;;;;;;10.75;8.05;;;;;;;17.83;100.00;103292.13;5072257;28;20032;-74
2023/05/28 04:39:20;;;;;;;9.50;8.30;;;;;;;17.97;100.00;103312.66;5053682;28;20037;-74
2023/05/28 04:41:46;;;;;;;11.02;8.80;;;;;;;17.77;100.00;103250.97;5072186;28;20032;-74
2023/05/28 04:44:15;;;;;;;9.70;8.45;;;;;;;17.51;100.00;103205.63;5072939;28;20031;-74
2023/05/28 04:46:43;;;;;;;10.75;8.20;;;;;;;17.85;100.00;103236.31;5054692;28;20411;-74
2023/05/28 04:49:10;;;;;;;9.52;8.32;;;;;;;18.28;100.00;103300.47;5072356;28;20063;-74
2023/05/28 04:51:37;;;;;;;10.07;8.05;;;;;;;18.23;100.00;103253.25;5072736;28;20097;-74
2023/05/28 04:54:02;;;;;;;11.20;7.95;;;;;;;17.93;100.00;103207.94;5054786;28;20105;-74
2023/05/28 04:56:28;;;;;;;9.82;7.28;;;;;;;18.35;100.00;103248.88;5071779;28;20029;-77
2023/05/28 04:58:54;;;;;;;13.98;8.00;;;;;;;18.61;100.00;103259.00;5072211;28;20036;-75
2023/05/28 05:01:19;;;;;;;12.10;7.80;;;;;;;18.71;100.00;103227.13;5072568;28;20037;-75
2023/05/28 05:03:45;;;;;;;9.07;7.55;;;;;;;18.94;100.00;103233.75;5073093;28;20044;-75
2023/05/28 05:06:11;;;;;;;10.65;8.50;;;;;;;18.78;100.00;103160.00;5072609;28;20099;-74
2023/05/28 05:08:36;;;;;;;10.20;8.43;;;;;;;18.69;100.00;103102.53;5072365;28;20032;-74
2023/05/28 05:11:04;;;;;;;11.68;9.07;;;;;;;18.44;100.00;103027.19;5072290;28;20028;-74
2023/05/28 05:13:29;;;;;;;12.35;8.93;;;;;;;18.85;100.00;103043.03;5072022;28;20059;-74
2023/05/28 05:15:55;;;;;;;11.25;8.90;;;;;;;18.92;100.00;103026.59;5072658;28;20407;-74
2023/05/28 05:18:21;;;;;;;10.82;8.13;;;;;;;18.49;100.00;102929.22;5071969;28;20064;-74
2023/05/28 05:20:46;;;;;;;11.68;8.57;;;;;;;18.73;100.00;102919.44;5072054;28;20537;-76
2023/05/28 05:23:12;;;;;;;10.98;8.65;;;;;;;19.10;100.00;102922.31;5054285;28;20112;-77
2023/05/28 05:25:37;;;;;;;9.88;8.05;;;;;;;19.14;100.00;102892.13;5072060;28;20094;-75
2023/05/28 05:28:03;;;;;;;8.77;7.80;;;;;;;18.96;100.00;102821.94;5072082;28;20521;-74
2023/05/28 05:30:28;;;;;;;9.60;7.32;;;;;;;19.01;100.00;102784.00;5054364;28;20039;-77
2023/05/28 05:32:53;;;;;;;9.85;6.88;;;;;;;19.26;100.00;102756.03;5071864;28;20093;-78
2023/05/28 05:35:19;;;;;;;8.80;6.95;;;;;;;19.25;100.00;102683.84;5072791;28;20025;-76
2023/05/28 05:37:45;;;;;;;14.07;8.82;;;;;;;19.44;100.00;102680.88;5070732;28;20032;-74
2023/05/28 05:40:11;;;;;;;11.80;8.43;;;;;;;19.30;100.00;102641.56;5072756;28;20028;-75
2023/05/28 05:42:37;;;;;;;10.73;9.25;;;;;;;18.71;100.00;102556.84;5057431;28;20553;-74
2023/05/28 05:45:05;;;;;;;13.25;9.15;;;;;;;19.00;100.00;102609.53;5057835;28;20032;-74
2023/05/28 05:47:31;;;;;;;13.73;9.75;;;;;;;18.87;100.00;102543.63;5035304;28;20037;-75
2023/05/28 05:49:57;;;;;;;9.63;8.45;;;;;;;19.14;100.00;102572.25;5052276;28;20123;-75
2023/05/28 05:52:23;;;;;;;12.05;8.40;;;;;;;18.60;100.00;102508.06;5052965;28;20545;-75
2023/05/28 05:54:48;;;;;;;11.00;8.93;;;;;;;19.34;100.00;102572.72;5050119;28;20041;-74
2023/05/28 05:57:14;;;;;;;12.95;8.88;;;;;;;19.09;100.00;102481.25;5063707;28;20403;-75
2023/05/28 05:59:40;;;;;;;13.73;9.30;;;;;;;19.24;100.00;102504.09;5071863;28;20618;-74
2023/05/28 06:02:06;;;;;;;10.15;9.15;;;;;;;19.45;100.00;102530.28;5071855;28;20029;-75
2023/05/28 06:04:33;;;;;;;9.88;8.85;;;;;;;19.08;100.00;102446.84;5071846;28;20029;-74
2023/05/28 06:07:02;;;;;;;10.18;8.98;;;;;;;19.10;100.00;102421.03;5053455;28;20085;-72
2023/05/28 06:09:28;;;;;;;14.32;11.98;;;;;;;19.42;100.00;102455.53;5072085;28;20036;-74
2023/05/28 06:11:53;;;;;;;17.95;16.10;;;;;;;19.63;100.00;102491.13;5071854;28;20048;-74
2023/05/28 06:14:19;;;;;;;15.75;12.07;;;;;;;19.64;100.00;102487.66;5054346;28;20127;-76
2023/05/28 06:16:45;;;;;;;16.25;10.23;;;;;;;19.74;100.00;102467.63;5063553;28;20406;-77
2023/05/28 06:19:11;;;;;;;12.82;9.82;;;;;;;19.26;100.00;102392.25;5071294;28;20028;-77
2023/05/28 06:21:36;;;;;;;12.18;9.32;;;;;;;19.46;100.00;102409.84;5070466;28;20036;-78
2023/05/28 06:24:03;;;;;;;10.75;9.23;;;;;;;19.26;100.00;102366.44;5039375;28;20408;-76
2023/05/28 06:26:28;;;;;;;11.70;9.00;;;;;;;19.81;100.00;102383.94;5070113;28;20063;-76
2023/05/28 06:28:54;;;;;;;12.13;8.60;;;;;;;19.48;100.00;102356.44;5064281;28;20126;-78
2023/05/28 06:31:20;;;;;;;10.07;8.55;;;;;;;19.75;100.00;102382.38;5069769;28;20035;-79
2023/05/28 06:33:45;;;;;;;12.07;8.60;;;;;;;19.46;100.00;102322.09;5067543;28;20029;-76
2023/05/28 06:36:12;;;;;;;12.43;8.93;;;;;;;20.12;100.00;102335.69;5068785;28;20074;-77
2023/05/28 06:38:37;;;;;;;13.02;7.82;;;;;;;19.88;100.00;102301.09;5056568;28;20063;-75
2023/05/28 06:41:03;;;;;;;12.88;8.02;;;;;;;19.91;100.00;102222.66;5074228;28;20113;-74
2023/05/28 06:43:28;;;;;;;10.02;8.20;;;;;;;20.64;100.00;102267.72;5074992;28;20031;-73
2023/05/28 06:45:54;;;;;;;8.65;7.43;;;;;;;20.58;100.00;102299.81;5074958;28;20742;-76
2023/05/28 06:48:20;;;;;;;11.30;7.70;;;;;;;21.11;100.00;102284.28;5057622;28;20044;-75
2023/05/28 06:50:45;;;;;;;11.52;7.20;;;;;;;20.89;100.00;102232.41;5074347;28;20028;-76
2023/05/28 06:53:11;;;;;;;10.90;7.22;;;;;;;20.04;100.00;102145.66;5056786;28;20032;-78
2023/05/28 06:55:36;;;;;;;10.85;7.13;;;;;;;20.59;100.00;102177.41;5074851;28;20030;-79
2023/05/28 06:58:01;;;;;;;8.57;7.32;;;;;;;20.64;100.00;102107.41;5075643;28;20104;-76
2023/05/28 07:00:27;;;;;;;10.98;6.72;;;;;;;20.92;100.00;102197.84;5074879;28;20467;-72
2023/05/28 07:02:52;;;;;;;8.20;6.88;;;;;;;21.16;100.00;102152.97;5071819;28;20157;-74
2023/05/28 07:05:18;;;;;;;10.25;6.82;;;;;;;20.99;100.00;102130.28;5073203;28;20547;-75
2023/05/28 07:07:49;;;;;;;9.40;7.18;;;;;;;21.42;100.00;102114.03;5073180;28;20020;-72
2023/05/28 07:10:15;;;;;;;11.75;7.40;;;;;;;21.05;100.00;102095.63;5073579;28;20032;-73
2023/05/28 07:12:41;;;;;;;11.63;8.00;;;;;;;21.24;100.00;102106.97;5073669;28;20049;-72
2023/05/28 07:15:07;;;;;;;11.60;7.70;;;;;;;21.34;100.00;102059.97;5073614;28;20033;-74
2023/05/28 07:17:32;;;;;;;9.07;7.25;;;;;;;22.12;100.00;102060.25;5073925;28;20085;-75
2023/05/28 07:19:58;;;;;;;11.43;7.28;;;;;;;21.54;100.00;101973.72;5075057;28;20029;-74
2023/05/28 07:22:24;;;;;;;10.32;6.38;;;;;;;21.99;100.00;101966.63;5063305;28;20048;-75
2023/05/28 07:24:50;;;;;;;10.65;7.00;;;;;;;22.09;100.00;101957.56;5037099;28;20067;-75
2023/05/28 07:27:15;;;;;;;9.93;6.88;;;;;;;21.84;100.00;101977.66;5054349;28;20028;-74
2023/05/28 07:29:41;;;;;;;10.40;7.20;;;;;;;21.30;100.00;101895.34;5053779;28;20117;-74
2023/05/28 07:32:06;;;;;;;10.52;7.18;;;;;;;21.95;100.00;101910.69;5052393;28;20487;-75
2023/05/28 07:34:32;;;;;;;8.43;5.97;;;;;;;21.63;100.00;101910.38;5052960;28;20037;-73
2023/05/28 07:36:57;;;;;;;11.20;6.50;;;;;;;21.96;100.00;101854.53;5053335;28;20504;-73
2023/05/28 07:39:23;;;;;;;8.27;5.82;;;;;;;21.82;100.00;101869.84;5053542;28;20025;-73
2023/05/28 07:41:48;;;;;;;9.43;5.68;;;;;;;22.06;100.00;101830.72;5035030;28;20043;-73
2023/05/28 07:44:15;;;;;;;11.30;6.32;;;;;;;21.67;100.00;101778.06;5053745;28;20037;-75
2023/05/28 07:46:41;;;;;;;8.93;6.35;;;;;;;22.21;100.00;101759.19;5057344;28;20024;-73
2023/05/28 07:49:07;;;;;;;9.80;6.57;;;;;;;22.21;100.00;101728.09;5067087;28;20041;-73
2023/05/28 07:51:33;;;;;;;13.15;6.78;;;;;;;22.44;100.00;101756.34;5058180;28;20024;-75
2023/05/28 07:53:58;;;;;;;8.98;6.57;;;;;;;22.51;100.00;101742.16;5053061;28;20388;-74
2023/05/28 07:56:24;;;;;;;11.43;6.68;;;;;;;21.74;100.00;101682.81;5052514;28;20484;-74
2023/05/28 07:58:49;;;;;;;8.90;6.15;;;;;;;21.93;100.00;101684.50;5053330;28;20032;-74
2023/05/28 08:01:15;;;;;;;10.55;6.88;;;;;;;22.01;100.00;101705.72;5053702;28;20036;-74
2023/05/28 08:03:41;;;;;;;11.70;6.53;;;;;;;22.06;100.00;101677.84;5053518;28;20033;-76
2023/05/28 08:06:08;;;;;;;11.20;6.35;;;;;;;21.17;100.00;101568.16;5071284;28;20043;-71
2023/05/28 08:08:34;;;;;;;13.98;6.32;;;;;;;21.53;100.00;101632.91;5073329;28;20039;-73
2023/05/28 08:11:00;;;;;;;10.18;6.30;;;;;;;21.37;100.00;101567.22;5054916;28;20040;-72
2023/05/28 08:13:25;;;;;;;10.40;6.72;;;;;;;21.53;100.00;101619.97;5073629;28;20052;-73
2023/05/28 08:15:52;;;;;;;11.85;6.35;;;;;;;21.87;100.00;101573.41;5054820;28;20032;-73
2023/05/28 08:18:17;;;;;;;11.75;6.35;;;;;;;22.10;100.00;101627.56;5054661;28;20459;-73
2023/05/28 08:20:43;;;;;;;10.60;6.50;;;;;;;23.45;100.00;101569.41;5071847;28;20479;-73
2023/05/28 08:23:08;;;;;;;8.57;6.50;;;;;;;22.34;100.00;101517.44;5054881;28;20037;-73
2023/05/28 08:25:34;;;;;;;8.10;6.15;;;;;;;22.35;100.00;101508.75;5053107;28;20021;-73
2023/05/28 08:28:05;;;;;;;10.82;6.78;;;;;;;22.48;100.00;101549.59;5071239;28;20157;-74
2023/05/28 08:30:34;;;;;;;10.23;6.72;;;;;;;22.23;100.00;101514.56;5053617;28;20479;-73
2023/05/28 08:32:59;;;;;;;10.23;6.75;;;;;;;21.61;100.00;101433.16;5053384;28;20090;-72
2023/05/28 08:35:25;;;;;;;11.20;7.47;;;;;;;23.06;100.00;101449.56;5071973;28;20132;-73
2023/05/28 08:37:51;;;;;;;7.97;6.40;;;;;;;23.92;100.00;101494.78;5072074;28;20116;-73
2023/05/28 08:40:17;;;;;;;8.75;6.30;;;;;;;22.62;100.00;101483.13;5071651;28;20037;-71
2023/05/28 08:42:43;;;;;;;11.52;6.85;;;;;;;21.90;100.00;101485.22;5053823;28;20032;-72
2023/05/28 08:45:09;;;;;;;9.82;6.63;;;;;;;21.63;100.00;101439.13;5054235;28;20111;-73
2023/05/28 08:47:40;;;;;;;8.75;6.72;;;;;;;21.53;100.00;101449.09;5054715;28;20456;-72
2023/05/28 08:50:06;;;;;;;10.35;6.93;;;;;;;21.79;100.00;101432.25;5072199;28;20510;-72
2023/05/28 08:52:33;;;;;;;8.30;6.90;;;;;;;21.57;100.00;101446.25;5071944;28;20048;-72
2023/05/28 08:55:00;;;;;;;11.23;8.32;;;;;;;21.01;100.00;101393.00;5071306;28;20032;-74
2023/05/28 08:57:29;;;;;;;11.05;7.72;;;;;;;21.62;100.00;101474.50;5054224;28;20055;-73
2023/05/28 08:59:55;;;;;;;9.30;7.82;;;;;;;21.79;100.00;101424.47;5054072;28;20106;-72
2023/05/28 09:02:24;;;;;;;10.48;8.07;;;;;;;21.71;100.00;101468.06;5054060;28;20487;-72
2023/05/28 09:04:50;;;;;;;10.40;7.55;;;;;;;21.18;100.00;101429.25;5070906;28;20443;-72
2023/05/28 09:07:16;;;;;;;11.18;7.60;;;;;;;21.46;100.00;101482.19;5071686;28;20068;-72
2023/05/28 09:09:42;;;;;;;12.93;8.48;;;;;;;20.96;100.00;101442.34;5071615;28;20025;-72
2023/05/28 09:12:12;;;;;;;13.07;8.23;;;;;;;20.77;100.00;101427.78;5071365;28;20045;-72
2023/05/28 09:14:40;;;;;;;13.10;7.80;;;;;;;21.31;100.00;101474.34;5071801;28;20059;-73
2023/05/28 09:17:05;;;;;;;11.52;8.07;;;;;;;21.49;100.00;101479.44;5071051;28;20025;-74
2023/05/28 09:19:31;;;;;;;10.25;8.05;;;;;;;21.10;100.00;101429.63;5072034;28;20084;-72
2023/05/28 09:21:59;;;;;;;13.32;8.50;;;;;;;21.33;100.00;101483.69;5071490;28;20044;-72
2023/05/28 09:24:25;;;;;;;11.13;7.97;;;;;;;21.18;100.00;101442.19;5071564;28;20029;-72
2023/05/28 09:26:54;;;;;;;12.55;8.32;;;;;;;21.67;100.00;101498.41;5071626;28;20105;-73
2023/05/28 09:29:20;;;;;;;10.60;7.50;;;;;;;22.33;100.00;101471.72;5053203;28;20058;-73
2023/05/28 09:31:57;;;;;;;11.52;7.43;;;;;;;21.92;100.00;101483.38;5071826;28;20425;-74
2023/05/28 09:34:27;;;;;;;12.55;8.00;;;;;;;21.68;100.00;101491.50;5053321;28;20032;-73
2023/05/28 09:36:53;;;;;;;12.70;8.07;;;;;;;21.68;100.00;101473.38;5053480;28;20039;-72
2023/05/28 09:39:18;;;;;;;11.38;8.23;;;;;;;20.97;100.00;101402.66;5053421;28;20024;-73
2023/05/28 09:41:46;;;;;;;9.73;7.80;;;;;;;21.37;100.00;101448.97;5070805;28;20554;-73
2023/05/28 09:44:12;;;;;;;11.90;7.95;;;;;;;21.87;100.00;101459.44;5071122;28;20036;-72
2023/05/28 09:46:38;;;;;;;8.88;7.95;;;;;;;21.93;100.00;101442.75;5071025;28;20035;-72
2023/05/28 09:49:04;;;;;;;12.15;8.48;;;;;;;21.89;100.00;101455.03;5071174;28;20025;-72
2023/05/28 09:51:32;;;;;;;11.70;7.68;;;;;;;22.29;100.00;101431.31;5053291;28;20032;-73
2023/05/28 09:54:04;;;;;;;11.85;7.30;;;;;;;22.88;100.00;101479.97;5070571;28;20101;-71
2023/05/28 09:56:32;;;;;;;9.93;7.22;;;;;;;22.58;100.00;101473.03;5070836;28;20055;-71
2023/05/28 09:59:00;;;;;;;10.73;6.85;;;;;;;22.15;100.00;101433.78;5071426;28;20103;-71
2023/05/28 10:01:31;;;;;;;7.97;6.50;;;;;;;22.34;100.00;101463.00;5071067;28;20086;-72
2023/05/28 10:04:04;;;;;;;13.32;6.75;;;;;;;22.41;100.00;101466.97;5052947;28;20037;-71
2023/05/28 10:06:31;;;;;;;8.90;6.30;;;;;;;22.15;100.00;101407.03;5073859;28;20564;-71
2023/05/28 10:08:59;;;;;;;12.27;6.38;;;;;;;21.93;100.00;101401.28;5075080;28;20028;-71
2023/05/28 10:11:27;;;;;;;10.13;6.38;;;;;;;22.36;100.00;101450.78;5074826;28;20060;-70
2023/05/28 10:13:54;;;;;;;10.77;6.30;;;;;;;21.92;100.00;101446.25;5074341;28;20371;-71
2023/05/28 10:16:21;;;;;;;11.18;7.10;;;;;;;21.70;100.00;101406.81;5074856;28;20024;-73
2023/05/28 10:18:47;;;;;;;11.35;6.55;;;;;;;22.17;100.00;101446.66;5074709;28;20032;-72
2023/05/28 10:21:13;;;;;;;9.02;6.07;;;;;;;22.83;100.00;101442.25;5074793;28;20064;-72
2023/05/28 10:23:40;;;;;;;9.68;5.75;;;;;;;22.78;100.00;101431.31;5074531;28;20476;-71
2023/05/28 10:26:06;;;;;;;10.10;5.97;;;;;;;23.68;100.00;101407.03;5074896;28;20085;-72
2023/05/28 10:28:32;;;;;;;11.02;5.70;;;;;;;22.99;100.00;101397.22;5074515;28;20025;-72
2023/05/28 10:31:06;;;;;;;8.20;4.90;;;;;;;22.65;100.00;101313.56;5075038;28;20044;-72
2023/05/28 10:33:32;;;;;;;8.32;5.22;;;;;;;22.77;100.00;101414.88;5074826;28;20051;-72
2023/05/28 10:36:00;;;;;;;6.72;4.63;;;;;;;22.56;100.00;101348.59;5074298;28;20025;-72
2023/05/28 10:38:28;;;;;;;8.73;5.05;;;;;;;22.93;100.00;101365.56;5055978;28;20032;-73
2023/05/28 10:41:02;;;;;;;6.60;4.47;;;;;;;22.79;100.00;101355.13;5056512;28;20032;-72
2023/05/28 10:43:50;;;;;;;7.82;4.75;;;;;;;22.99;100.00;101315.94;5071163;28;20131;-71
2023/05/28 10:46:20;;;;;;;9.93;4.72;;;;;;;22.56;100.00;101348.59;5074490;28;20119;-72
2023/05/28 10:49:16;;;;;;;6.70;4.88;;;;;;;22.88;100.00;101326.06;5074341;28;20024;-72
2023/05/28 10:51:54;;;;;;;8.85;5.00;;;;;;;22.69;100.00;101326.28;5073907;28;20040;-71
2023/05/28 10:54:40;;;;;;;10.10;5.68;;;;;;;22.82;100.00;101279.75;5056016;28;20088;-71
2023/05/28 10:57:16;;;;;;;7.95;5.05;;;;;;;22.70;100.00;101293.41;5055997;28;20036;-73
2023/05/28 10:59:57;;;;;;;7.53;5.38;;;;;;;22.59;100.00;101257.72;5074451;28;20024;-72
2023/05/28 11:02:28;;;;;;;7.75;5.47;;;;;;;23.61;100.00;101294.88;5056040;28;21319;-72
2023/05/28 11:05:00;;;;;;;8.60;5.88;;;;;;;23.33;100.00;101297.47;5055702;28;20131;-72
2023/05/28 11:07:30;;;;;;;10.68;5.35;;;;;;;23.64;100.00;101280.88;5056437;28;20131;-72